createdAt,value
2023-05-10T00:02:07.075Z,43.38
2023-05-10T00:05:10.684Z,43.39
2023-05-10T00:08:13.463Z,43.41
2023-05-10T00:11:16.203Z,43.34
2023-05-10T00:14:19.302Z,43.41
2023-05-10T00:17:23.450Z,43.41
2023-05-10T00:20:26.228Z,43.38
2023-05-10T00:23:29.030Z,43.46
2023-05-10T00:26:31.825Z,43.32
2023-05-10T00:29:34.838Z,43.44
2023-05-10T00:32:39.098Z,43.44
2023-05-10T00:35:42.010Z,43.48
2023-05-10T00:38:45.673Z,43.51
2023-05-10T00:41:48.417Z,43.44
2023-05-10T00:44:52.152Z,43.43
2023-05-10T00:47:57.049Z,43.37
2023-05-10T00:51:00.015Z,43.32
2023-05-10T00:54:02.839Z,43.26
2023-05-10T00:57:06.108Z,43.16
2023-05-10T01:00:10.740Z,43.17
2023-05-10T01:03:15.385Z,43.14
2023-05-10T01:06:18.218Z,43.11
2023-05-10T01:09:22.114Z,43.04
2023-05-10T01:12:25.071Z,43.10
2023-05-10T01:15:28.901Z,43.23
2023-05-10T01:18:35.188Z,43.28
2023-05-10T01:21:45.082Z,43.27
2023-05-10T01:25:24.087Z,43.38
2023-05-10T01:28:49.331Z,43.44
2023-05-10T01:32:12.070Z,43.39
2023-05-10T01:35:20.248Z,43.50
2023-05-10T01:38:31.671Z,43.47
2023-05-10T01:41:43.034Z,43.51
2023-05-10T01:44:56.198Z,43.44
2023-05-10T01:48:08.275Z,43.49
2023-05-10T01:51:12.752Z,43.52
2023-05-10T01:54:17.624Z,43.38
2023-05-10T01:57:22.296Z,43.36
2023-05-10T02:00:26.305Z,43.38
2023-05-10T02:03:32.143Z,43.49
2023-05-10T02:06:36.181Z,43.49
2023-05-10T02:09:40.129Z,43.43
2023-05-10T02:12:45.257Z,43.44
2023-05-10T02:15:50.151Z,43.34
2023-05-10T02:18:55.725Z,43.29
2023-05-10T02:22:01.412Z,43.23
2023-05-10T02:25:06.157Z,43.34
2023-05-10T02:28:10.067Z,43.33
2023-05-10T02:31:13.546Z,43.40
2023-05-10T02:34:17.801Z,43.45
2023-05-10T02:37:23.474Z,43.54
2023-05-10T02:40:28.871Z,43.45
2023-05-10T02:43:35.339Z,43.50
2023-05-10T02:46:38.871Z,43.52
2023-05-10T02:49:43.318Z,43.61
2023-05-10T02:52:49.025Z,43.53
2023-05-10T02:55:54.848Z,43.58
2023-05-10T02:58:57.714Z,43.54
2023-05-10T03:02:01.115Z,43.54
2023-05-10T03:05:05.697Z,43.60
2023-05-10T03:08:08.890Z,43.54
2023-05-10T03:11:34.082Z,43.76
2023-05-10T03:14:51.053Z,43.70
2023-05-10T03:17:59.023Z,43.62
2023-05-10T03:21:07.248Z,43.58
2023-05-10T03:24:13.309Z,43.65
2023-05-10T03:27:17.520Z,43.58
2023-05-10T03:30:21.432Z,43.70
2023-05-10T03:33:24.345Z,43.61
2023-05-10T03:36:28.757Z,43.53
2023-05-10T03:39:32.366Z,43.68
2023-05-10T03:42:37.129Z,43.60
2023-05-10T03:45:39.885Z,43.72
2023-05-10T03:48:42.647Z,43.59
2023-05-10T03:51:46.925Z,43.55
2023-05-10T03:54:49.730Z,43.64
2023-05-10T03:57:54.674Z,43.70
2023-05-10T04:00:59.034Z,43.67
2023-05-10T04:04:01.824Z,43.58
2023-05-10T04:07:08.932Z,43.56
2023-05-10T04:10:12.007Z,43.73
2023-05-10T04:13:14.746Z,43.71
2023-05-10T04:16:17.629Z,43.69
2023-05-10T04:19:20.441Z,43.62
2023-05-10T04:22:24.576Z,43.69
2023-05-10T04:25:27.382Z,43.64
2023-05-10T04:28:30.505Z,43.72
2023-05-10T04:31:33.393Z,43.62
2023-05-10T04:34:36.153Z,43.64
2023-05-10T04:37:40.316Z,43.55
2023-05-10T04:40:43.044Z,43.78
2023-05-10T04:43:45.818Z,43.73
2023-05-10T04:46:48.627Z,43.73
2023-05-10T04:49:51.389Z,43.79
2023-05-10T04:52:55.517Z,43.71
2023-05-10T04:55:58.251Z,43.86
2023-05-10T04:59:01.040Z,43.77
2023-05-10T05:02:04.504Z,43.80
2023-05-10T05:05:08.366Z,43.79
2023-05-10T05:08:12.528Z,43.71
2023-05-10T05:11:15.355Z,43.76
2023-05-10T05:14:18.145Z,43.71
2023-05-10T05:17:20.891Z,43.80
2023-05-10T05:20:23.748Z,43.78
2023-05-10T05:23:27.891Z,43.79
2023-05-10T05:26:30.756Z,43.71
2023-05-10T05:29:33.508Z,43.79
2023-05-10T05:32:36.338Z,43.68
2023-05-10T05:35:39.512Z,43.77
2023-05-10T05:38:43.999Z,43.70
2023-05-10T05:41:47.173Z,43.82
2023-05-10T05:44:49.944Z,43.64
2023-05-10T05:47:52.755Z,43.69
2023-05-10T05:50:57.562Z,43.70
2023-05-10T05:54:01.653Z,43.73
2023-05-10T05:57:04.536Z,43.76
2023-05-10T06:00:08.701Z,43.77
2023-05-10T06:03:17.090Z,43.65
2023-05-10T06:06:19.842Z,43.71
2023-05-10T06:09:25.515Z,43.70
2023-05-10T06:12:28.278Z,43.66
2023-05-10T06:15:31.034Z,43.69
2023-05-10T06:18:34.102Z,43.73
2023-05-10T06:21:37.016Z,43.69
2023-05-10T06:24:41.169Z,43.68
2023-05-10T06:27:45.143Z,43.60
2023-05-10T06:30:50.057Z,43.67
2023-05-10T06:33:55.341Z,43.66
2023-05-10T06:36:59.476Z,43.76
2023-05-10T06:40:03.607Z,43.73
2023-05-10T06:43:06.597Z,43.73
2023-05-10T06:46:09.606Z,43.80
2023-05-10T06:49:12.421Z,43.75
2023-05-10T06:52:15.156Z,43.93
2023-05-10T06:55:19.569Z,43.91
2023-05-10T06:58:22.344Z,44.19
2023-05-10T07:01:25.448Z,44.05
2023-05-10T07:04:28.717Z,44.30
2023-05-10T07:07:31.531Z,44.36
2023-05-10T07:10:35.824Z,44.52
2023-05-10T07:13:40.070Z,44.74
2023-05-10T07:16:43.214Z,44.65
2023-05-10T07:19:46.120Z,44.67
2023-05-10T07:22:48.857Z,44.62
2023-05-10T07:25:54.353Z,44.71
2023-05-10T07:28:57.098Z,44.69
2023-05-10T07:31:59.883Z,44.67
2023-05-10T07:35:02.718Z,44.68
2023-05-10T07:38:05.558Z,44.61
2023-05-10T07:41:09.780Z,44.57
2023-05-10T07:44:12.544Z,44.63
2023-05-10T07:47:15.370Z,44.62
2023-05-10T07:50:18.433Z,44.77
2023-05-10T07:53:21.746Z,44.58
2023-05-10T07:56:28.301Z,44.69
2023-05-10T07:59:31.114Z,44.65
2023-05-10T08:02:34.986Z,44.68
2023-05-10T08:05:37.778Z,44.64
2023-05-10T08:08:40.593Z,44.63
2023-05-10T08:11:44.715Z,44.66
2023-05-10T08:14:47.428Z,44.62
2023-05-10T08:17:50.227Z,44.63
2023-05-10T08:20:53.029Z,44.49
2023-05-10T08:23:55.831Z,44.56
2023-05-10T08:26:59.946Z,44.62
2023-05-10T08:30:02.750Z,44.67
2023-05-10T08:33:06.060Z,44.68
2023-05-10T08:36:09.069Z,44.69
2023-05-10T08:39:23.006Z,44.81
2023-05-10T08:42:38.788Z,44.84
2023-05-10T08:45:43.075Z,44.79
2023-05-10T08:48:46.788Z,44.94
2023-05-10T08:51:53.728Z,44.77
2023-05-10T08:54:56.640Z,44.76
2023-05-10T08:58:01.252Z,44.88
2023-05-10T09:01:04.683Z,44.87
2023-05-10T09:04:07.585Z,44.90
2023-05-10T09:07:10.506Z,44.93
2023-05-10T09:10:15.205Z,44.96
2023-05-10T09:13:20.702Z,45.01
2023-05-10T09:16:24.359Z,44.99
2023-05-10T09:19:27.128Z,45.02
2023-05-10T09:22:29.886Z,45.12
2023-05-10T09:25:34.170Z,45.07
2023-05-10T09:28:53.212Z,45.08
2023-05-10T09:31:56.567Z,45.07
2023-05-10T09:34:59.335Z,45.06
2023-05-10T09:38:06.502Z,45.06
2023-05-10T09:41:18.396Z,44.93
2023-05-10T09:44:22.527Z,44.93
2023-05-10T09:47:26.010Z,44.76
2023-05-10T09:50:29.221Z,45.20
2023-05-10T09:53:32.122Z,44.95
2023-05-10T09:56:35.764Z,44.48
2023-05-10T09:59:44.974Z,44.28
2023-05-10T10:02:50.074Z,43.99
2023-05-10T10:05:54.207Z,42.92
2023-05-10T10:08:57.279Z,42.09
2023-05-10T10:12:01.045Z,42.70
2023-05-10T10:15:07.642Z,42.54
2023-05-10T10:18:15.524Z,42.58
2023-05-10T10:21:19.438Z,41.60
2023-05-10T10:24:22.185Z,41.31
2023-05-10T10:27:31.213Z,41.46
2023-05-10T10:30:41.155Z,41.73
2023-05-10T10:33:58.783Z,41.09
2023-05-10T10:37:07.472Z,38.30
2023-05-10T10:40:26.829Z,40.11
2023-05-10T10:43:31.378Z,39.94
2023-05-10T10:46:36.453Z,39.79
2023-05-10T10:49:50.670Z,39.53
2023-05-10T10:52:54.030Z,39.76
2023-05-10T10:56:07.844Z,39.90
2023-05-10T10:59:10.811Z,39.38
2023-05-10T11:02:35.079Z,39.47
2023-05-10T11:05:40.292Z,39.64
2023-05-10T11:08:45.932Z,39.86
2023-05-10T11:11:55.846Z,39.91
2023-05-10T11:14:59.693Z,40.24
2023-05-10T11:18:19.075Z,40.36
2023-05-10T11:21:21.965Z,40.54
2023-05-10T11:24:28.996Z,40.58
2023-05-10T11:27:34.078Z,40.91
2023-05-10T11:30:37.749Z,41.00
2023-05-10T11:33:46.834Z,41.22
2023-05-10T11:36:54.831Z,41.27
2023-05-10T11:39:57.622Z,41.33
2023-05-10T11:43:01.253Z,41.40
2023-05-10T11:46:04.152Z,41.50
2023-05-10T11:49:09.282Z,41.74
2023-05-10T11:52:13.037Z,41.61
2023-05-10T11:55:15.872Z,41.67
2023-05-10T11:58:22.283Z,41.83
2023-05-10T12:01:26.482Z,41.84
2023-05-10T12:04:31.296Z,41.92
2023-05-10T12:07:34.593Z,42.03
2023-05-10T12:10:37.597Z,42.07
2023-05-10T12:13:42.085Z,42.10
2023-05-10T12:16:45.865Z,42.14
2023-05-10T12:19:50.161Z,42.23
2023-05-10T12:22:54.795Z,42.17
2023-05-10T12:26:04.388Z,42.17
2023-05-10T12:29:17.863Z,42.06
2023-05-10T12:32:20.818Z,41.99
2023-05-10T12:35:25.328Z,42.01
2023-05-10T12:38:30.600Z,42.00
2023-05-10T12:41:33.420Z,42.00
2023-05-10T12:44:36.261Z,42.15
2023-05-10T12:47:42.181Z,42.25
2023-05-10T12:50:48.245Z,42.38
2023-05-10T12:53:50.989Z,42.58
2023-05-10T12:56:53.730Z,42.82
2023-05-10T12:59:56.823Z,43.05
2023-05-10T13:02:59.622Z,43.44
2023-05-10T13:06:03.765Z,43.80
2023-05-10T13:09:06.510Z,44.30
2023-05-10T13:12:10.283Z,44.37
2023-05-10T13:15:13.134Z,44.38
2023-05-10T13:18:16.210Z,44.33
2023-05-10T13:21:20.412Z,44.32
2023-05-10T13:24:23.247Z,44.33
2023-05-10T13:27:25.979Z,44.29
2023-05-10T13:30:29.758Z,44.09
2023-05-10T13:33:32.516Z,44.12
2023-05-10T13:36:36.724Z,44.00
2023-05-10T13:39:39.484Z,43.86
2023-05-10T13:42:42.314Z,43.92
2023-05-10T13:45:45.124Z,44.03
2023-05-10T13:48:47.929Z,44.26
2023-05-10T13:51:52.026Z,44.19
2023-05-10T13:54:55.983Z,44.26
2023-05-10T13:57:58.963Z,44.17
2023-05-10T14:01:01.705Z,44.33
2023-05-10T14:04:04.791Z,44.33
2023-05-10T14:07:08.932Z,44.22
2023-05-10T14:10:12.010Z,44.44
2023-05-10T14:13:14.723Z,44.35
2023-05-10T14:16:17.605Z,44.33
2023-05-10T14:19:20.472Z,44.38
2023-05-10T14:22:24.642Z,44.27
2023-05-10T14:25:27.941Z,44.38
2023-05-10T14:28:30.913Z,44.30
2023-05-10T14:31:33.799Z,44.42
2023-05-10T14:34:36.635Z,44.42
2023-05-10T14:37:40.759Z,44.53
2023-05-10T14:40:43.876Z,44.40
2023-05-10T14:43:46.904Z,44.49
2023-05-10T14:46:50.609Z,44.26
2023-05-10T14:49:53.393Z,44.16
2023-05-10T14:52:57.799Z,43.85
2023-05-10T14:56:02.095Z,43.94
2023-05-10T14:59:05.066Z,43.87
2023-05-10T15:02:09.207Z,43.58
2023-05-10T15:05:12.468Z,43.67
2023-05-10T15:08:17.097Z,43.73
2023-05-10T15:11:19.836Z,43.67
2023-05-10T15:14:22.693Z,43.72
2023-05-10T15:17:25.473Z,43.61
2023-05-10T15:20:28.361Z,43.97
2023-05-10T15:23:33.257Z,44.36
2023-05-10T15:26:36.160Z,44.36
2023-05-10T15:29:38.928Z,44.39
2023-05-10T15:32:42.001Z,44.42
2023-05-10T15:35:44.832Z,41.23
2023-05-10T15:38:48.965Z,38.94
2023-05-10T15:41:51.969Z,38.44
2023-05-10T15:44:54.745Z,37.48
2023-05-10T15:47:57.544Z,37.41
2023-05-10T15:51:00.408Z,37.03
2023-05-10T15:54:08.194Z,36.61
2023-05-10T15:57:11.760Z,36.65
2023-05-10T16:00:15.170Z,36.56
2023-05-10T16:03:18.021Z,36.70
2023-05-10T16:06:20.820Z,36.69
2023-05-10T16:09:24.924Z,36.75
2023-05-10T16:12:27.842Z,36.38
2023-05-10T16:15:30.757Z,36.58
2023-05-10T16:18:33.639Z,36.07
2023-05-10T16:21:36.510Z,36.08
2023-05-10T16:24:40.710Z,35.69
2023-05-10T16:27:44.387Z,35.73
2023-05-10T16:30:47.518Z,35.76
2023-05-10T16:33:51.076Z,35.81
2023-05-10T16:36:53.792Z,36.04
2023-05-10T16:39:57.952Z,35.94
2023-05-10T16:43:01.339Z,36.21
2023-05-10T16:46:04.139Z,36.04
2023-05-10T16:49:08.855Z,35.96
2023-05-10T16:52:11.657Z,35.97
2023-05-10T16:55:16.075Z,36.06
2023-05-10T16:58:18.993Z,36.09
2023-05-10T17:01:23.205Z,36.29
2023-05-10T17:04:27.177Z,36.15
2023-05-10T17:07:30.594Z,36.25
2023-05-10T17:10:34.766Z,36.20
2023-05-10T17:13:38.762Z,36.32
2023-05-10T17:16:42.358Z,36.25
2023-05-10T17:19:46.062Z,36.50
2023-05-10T17:22:49.585Z,36.74
2023-05-10T17:25:53.683Z,36.77
2023-05-10T17:28:56.957Z,36.66
2023-05-10T17:32:00.053Z,36.86
2023-05-10T17:35:03.705Z,36.82
2023-05-10T17:38:06.522Z,36.88
2023-05-10T17:41:10.633Z,37.09
2023-05-10T17:44:13.986Z,37.00
2023-05-10T17:47:16.736Z,37.37
2023-05-10T17:50:19.580Z,37.41
2023-05-10T17:53:22.384Z,37.50
2023-05-10T17:56:27.057Z,37.61
2023-05-10T17:59:29.844Z,37.90
2023-05-10T18:02:32.661Z,38.20
2023-05-10T18:05:37.573Z,38.34
2023-05-10T18:08:40.373Z,38.65
2023-05-10T18:11:44.547Z,38.79
2023-05-10T18:14:47.310Z,38.92
2023-05-10T18:17:50.719Z,38.90
2023-05-10T18:20:56.681Z,39.04
2023-05-10T18:23:59.408Z,39.36
2023-05-10T18:27:03.964Z,39.43
2023-05-10T18:30:10.066Z,39.61
2023-05-10T18:33:13.183Z,39.75
2023-05-10T18:36:16.070Z,39.87
2023-05-10T18:39:19.058Z,40.01
2023-05-10T18:42:23.347Z,40.10
2023-05-10T18:45:26.193Z,40.01
2023-05-10T18:48:28.985Z,40.09
2023-05-10T18:51:31.809Z,40.04
2023-05-10T18:54:34.900Z,40.22
2023-05-10T18:57:41.612Z,40.22
2023-05-10T19:00:44.641Z,40.29
2023-05-10T19:03:47.815Z,40.29
2023-05-10T19:06:50.624Z,40.35
2023-05-10T19:09:53.607Z,40.38
2023-05-10T19:12:58.060Z,40.42
2023-05-10T19:16:05.901Z,40.44
2023-05-10T19:19:09.598Z,40.61
2023-05-10T19:22:12.653Z,40.67
2023-05-10T19:25:16.816Z,40.71
2023-05-10T19:28:21.213Z,40.61
2023-05-10T19:31:24.618Z,40.76
2023-05-10T19:34:28.240Z,40.70
2023-05-10T19:37:31.695Z,40.75
2023-05-10T19:40:34.477Z,40.76
2023-05-10T19:43:39.593Z,40.87
2023-05-10T19:46:42.469Z,40.85
2023-05-10T19:49:45.377Z,40.92
2023-05-10T19:52:49.137Z,41.04
2023-05-10T19:55:51.988Z,41.13
2023-05-10T19:58:56.222Z,41.14
2023-05-10T20:01:59.267Z,41.14
2023-05-10T20:05:02.026Z,41.29
2023-05-10T20:08:04.875Z,41.37
2023-05-10T20:11:07.811Z,41.16
2023-05-10T20:14:11.961Z,41.37
2023-05-10T20:17:14.744Z,41.47
2023-05-10T20:20:18.506Z,41.31
2023-05-10T20:23:21.516Z,41.38
2023-05-10T20:26:24.581Z,41.37
2023-05-10T20:29:28.700Z,41.43
2023-05-10T20:32:31.626Z,41.54
2023-05-10T20:35:34.459Z,41.46
2023-05-10T20:38:37.482Z,41.64
2023-05-10T20:41:40.454Z,41.69
2023-05-10T20:44:44.590Z,41.87
2023-05-10T20:47:47.461Z,41.97
2023-05-10T20:50:51.708Z,42.09
2023-05-10T20:53:54.492Z,41.89
2023-05-10T20:56:57.304Z,41.86
2023-05-10T21:00:01.591Z,41.95
2023-05-10T21:03:04.878Z,42.06
2023-05-10T21:06:07.694Z,41.92
2023-05-10T21:09:10.616Z,41.95
2023-05-10T21:12:14.269Z,41.93
2023-05-10T21:15:18.674Z,41.94
2023-05-10T21:18:21.991Z,42.21
2023-05-10T21:21:24.840Z,42.19
2023-05-10T21:24:27.579Z,42.11
2023-05-10T21:27:30.561Z,42.31
2023-05-10T21:30:34.908Z,42.30
2023-05-10T21:33:37.680Z,42.20
2023-05-10T21:36:40.507Z,42.33
2023-05-10T21:39:43.548Z,42.27
2023-05-10T21:42:49.292Z,42.37
2023-05-10T21:45:53.560Z,42.34
2023-05-10T21:48:57.359Z,42.29
2023-05-10T21:52:00.129Z,42.35
2023-05-10T21:55:03.279Z,42.46
2023-05-10T21:58:06.168Z,42.46
2023-05-10T22:01:10.287Z,42.46
2023-05-10T22:04:13.159Z,42.56
2023-05-10T22:07:16.945Z,42.54
2023-05-10T22:10:20.225Z,42.51
2023-05-10T22:13:23.283Z,42.53
2023-05-10T22:16:27.606Z,42.43
2023-05-10T22:19:30.560Z,42.48
2023-05-10T22:22:33.548Z,42.60
2023-05-10T22:25:36.332Z,42.57
2023-05-10T22:28:39.415Z,42.50
2023-05-10T22:31:43.512Z,42.56
2023-05-10T22:34:46.294Z,42.57
2023-05-10T22:37:49.057Z,42.52
2023-05-10T22:40:51.792Z,42.56
2023-05-10T22:43:54.755Z,42.60
2023-05-10T22:46:58.911Z,42.56
2023-05-10T22:50:03.437Z,42.65
2023-05-10T22:53:06.661Z,42.65
2023-05-10T22:56:09.562Z,42.62
2023-05-10T22:59:12.465Z,42.64
2023-05-10T23:02:18.040Z,42.71
2023-05-10T23:05:21.176Z,42.75
2023-05-10T23:08:23.980Z,42.73
2023-05-10T23:11:26.871Z,42.77
2023-05-10T23:14:29.600Z,42.84
2023-05-10T23:17:33.761Z,42.62
2023-05-10T23:20:36.736Z,42.68
2023-05-10T23:23:39.516Z,42.80
2023-05-10T23:26:43.540Z,42.76
2023-05-10T23:29:46.265Z,42.87
2023-05-10T23:32:50.480Z,42.69
2023-05-10T23:35:53.302Z,42.69
2023-05-10T23:38:56.026Z,42.72
2023-05-10T23:41:58.798Z,42.72
2023-05-10T23:45:01.678Z,42.82
2023-05-10T23:48:06.081Z,42.71
2023-05-10T23:51:08.975Z,42.72
2023-05-10T23:54:12.267Z,42.79
2023-05-10T23:57:15.009Z,42.85
